createdAt,value
2024-02-08T00:04:05.194Z,7.27
2024-02-08T00:09:12.983Z,6.97
2024-02-08T00:14:18.269Z,7.53
2024-02-08T00:19:23.447Z,7.87
2024-02-08T00:24:32.224Z,7.30
2024-02-08T00:29:37.707Z,8.37
2024-02-08T00:34:46.491Z,8.43
2024-02-08T00:39:54.582Z,8.33
2024-02-08T00:45:00.036Z,7.70
2024-02-08T00:50:08.347Z,7.43
2024-02-08T00:55:17.496Z,8.60
2024-02-08T01:00:24.530Z,7.87
2024-02-08T01:05:29.984Z,8.07
2024-02-08T01:10:38.014Z,7.40
2024-02-08T01:15:43.530Z,7.13
2024-02-08T01:20:48.710Z,7.07
2024-02-08T01:25:56.866Z,6.93
2024-02-08T01:31:02.794Z,6.10
2024-02-08T01:36:08.763Z,5.90
2024-02-08T01:41:17.823Z,6.03
2024-02-08T01:46:25.488Z,5.50
2024-02-08T01:51:31.540Z,5.37
2024-02-08T01:56:43.387Z,5.93
2024-02-08T02:01:52.948Z,5.53
2024-02-08T02:07:01.579Z,5.20
2024-02-08T02:12:15.913Z,5.70
2024-02-08T02:17:27.862Z,5.57
2024-02-08T02:22:36.350Z,5.77
2024-02-08T02:27:44.354Z,6.20
2024-02-08T02:32:51.429Z,6.20
2024-02-08T02:38:04.173Z,7.20
2024-02-08T02:43:11.452Z,7.80
2024-02-08T02:48:17.428Z,7.50
2024-02-08T02:53:25.904Z,7.03
2024-02-08T02:58:33.130Z,9.80
2024-02-08T03:03:42.478Z,9.03
2024-02-08T03:08:51.589Z,8.80
2024-02-08T03:13:57.210Z,9.77
2024-02-08T03:19:03.171Z,10.43
2024-02-08T03:24:13.445Z,12.93
2024-02-08T03:29:19.672Z,11.00
2024-02-08T03:34:36.103Z,10.77
2024-02-08T03:39:48.454Z,12.57
2024-02-08T03:44:55.809Z,12.43
2024-02-08T03:50:05.372Z,11.63
2024-02-08T03:55:14.424Z,13.40
2024-02-08T04:00:29.718Z,12.33
2024-02-08T04:05:44.187Z,11.73
2024-02-08T04:11:04.422Z,12.57
2024-02-08T04:16:22.690Z,11.60
2024-02-08T04:21:42.936Z,11.50
2024-02-08T04:27:03.654Z,11.27
2024-02-08T04:32:22.257Z,11.07
2024-02-08T04:37:39.899Z,11.40
2024-02-08T04:43:00.224Z,9.73
2024-02-08T04:48:17.765Z,10.10
2024-02-08T04:53:35.359Z,11.73
2024-02-08T04:59:07.046Z,10.43
2024-02-08T05:04:20.453Z,9.37
2024-02-08T05:09:26.190Z,9.53
2024-02-08T05:14:39.396Z,9.30
2024-02-08T05:19:47.840Z,8.40
2024-02-08T05:24:56.777Z,8.33
2024-02-08T05:30:04.790Z,9.23
2024-02-08T05:35:15.958Z,9.23
2024-02-08T05:40:23.876Z,8.70
2024-02-08T05:45:34.738Z,8.83
2024-02-08T05:50:40.009Z,7.87
2024-02-08T05:55:49.608Z,10.33
2024-02-08T06:01:07.248Z,8.27
2024-02-08T06:06:30.718Z,8.37
2024-02-08T06:11:38.614Z,7.27
2024-02-08T06:16:52.679Z,7.20
2024-02-08T06:22:09.631Z,8.13
2024-02-08T06:27:18.590Z,7.13
2024-02-08T06:32:45.542Z,7.80
2024-02-08T06:38:01.825Z,8.87
2024-02-08T06:43:24.287Z,7.13
2024-02-08T06:48:44.632Z,7.60
2024-02-08T06:54:05.489Z,7.23
2024-02-08T06:59:23.071Z,8.23
2024-02-08T07:04:50.400Z,8.13
2024-02-08T07:10:09.832Z,7.60
2024-02-08T07:15:30.660Z,8.40
2024-02-08T07:20:51.113Z,7.43
2024-02-08T07:26:09.082Z,7.20
2024-02-08T07:31:26.629Z,6.57
2024-02-08T07:36:46.753Z,6.47
2024-02-08T07:41:58.706Z,6.37
2024-02-08T07:47:05.384Z,6.43
2024-02-08T07:52:21.436Z,5.93
2024-02-08T07:57:33.044Z,5.73
2024-02-08T08:02:41.294Z,5.60
2024-02-08T08:08:01.319Z,6.10
2024-02-08T08:13:08.046Z,6.37
2024-02-08T08:18:25.730Z,5.70
2024-02-08T08:23:33.509Z,6.47
2024-02-08T08:28:54.451Z,6.70
2024-02-08T08:34:27.145Z,6.67
2024-02-08T08:39:53.331Z,8.07
2024-02-08T08:45:06.405Z,9.37
2024-02-08T08:50:23.542Z,10.87
2024-02-08T08:55:32.812Z,7.63
2024-02-08T09:00:40.059Z,6.30
2024-02-08T09:05:48.111Z,5.57
2024-02-08T09:10:58.209Z,6.17
2024-02-08T09:16:26.711Z,6.17
2024-02-08T09:21:40.517Z,6.10
2024-02-08T09:26:58.097Z,5.93
2024-02-08T09:32:17.592Z,4.93
2024-02-08T09:37:23.276Z,4.10
2024-02-08T09:42:39.569Z,5.10
2024-02-08T09:47:54.070Z,4.87
2024-02-08T09:53:08.962Z,4.20
2024-02-08T09:58:36.339Z,5.10
2024-02-08T10:03:46.417Z,4.77
2024-02-08T10:09:09.930Z,5.00
2024-02-08T10:14:26.825Z,4.73
2024-02-08T10:19:45.558Z,4.87
2024-02-08T10:25:03.743Z,5.30
2024-02-08T10:30:21.245Z,5.73
2024-02-08T10:35:30.935Z,4.80
2024-02-08T10:40:36.817Z,4.87
2024-02-08T10:45:45.841Z,4.93
2024-02-08T10:50:54.761Z,5.40
2024-02-08T10:56:01.217Z,5.37
2024-02-08T11:01:34.636Z,5.73
2024-02-08T11:06:56.196Z,6.23
2024-02-08T11:12:10.188Z,6.03
2024-02-08T11:17:22.265Z,6.23
2024-02-08T11:22:41.988Z,6.30
2024-02-08T11:27:50.801Z,6.63
2024-02-08T11:33:07.265Z,6.03
2024-02-08T11:38:22.597Z,7.00
2024-02-08T11:43:30.725Z,6.40
2024-02-08T11:48:43.243Z,6.13
2024-02-08T11:53:52.857Z,6.80
2024-02-08T11:59:21.741Z,6.23
2024-02-08T12:04:40.965Z,6.50
2024-02-08T12:09:50.899Z,6.30
2024-02-08T12:15:01.456Z,6.90
2024-02-08T12:20:11.839Z,8.10
2024-02-08T12:25:20.537Z,6.63
2024-02-08T12:30:29.712Z,7.40
2024-02-08T12:35:42.623Z,8.57
2024-02-08T12:40:53.491Z,7.57
2024-02-08T12:45:58.976Z,8.30
2024-02-08T12:51:15.211Z,7.93
2024-02-08T12:56:23.724Z,8.43
2024-02-08T13:01:38.356Z,8.37
2024-02-08T13:06:47.555Z,7.70
2024-02-08T13:11:52.786Z,7.77
2024-02-08T13:17:00.980Z,8.10
2024-02-08T13:22:10.895Z,7.33
2024-02-08T13:27:27.398Z,8.47
2024-02-08T13:32:38.613Z,9.67
2024-02-08T13:37:55.961Z,7.87
2024-02-08T13:48:18.084Z,8.40
2024-02-08T13:53:29.786Z,6.43
2024-02-08T13:58:45.790Z,6.27
2024-02-08T14:03:56.315Z,5.83
2024-02-08T14:09:21.093Z,6.27
2024-02-08T14:14:32.321Z,6.27
2024-02-08T14:19:38.662Z,6.37
2024-02-08T14:24:58.341Z,6.83
2024-02-08T14:30:06.890Z,8.23
2024-02-08T14:35:18.144Z,8.60
2024-02-08T14:40:30.413Z,8.27
2024-02-08T14:45:39.630Z,8.67
2024-02-08T14:50:54.598Z,9.93
2024-02-08T14:56:02.828Z,8.80
2024-02-08T15:01:13.671Z,8.53
2024-02-08T15:06:38.530Z,7.37
2024-02-08T15:11:59.171Z,11.20
2024-02-08T15:17:09.293Z,8.60
2024-02-08T15:22:42.452Z,8.07
2024-02-08T15:27:58.638Z,9.70
2024-02-08T15:33:22.366Z,8.60
2024-02-08T15:39:02.160Z,9.17
2024-02-08T15:44:17.114Z,9.23
2024-02-08T15:49:30.546Z,8.97
2024-02-08T15:54:39.791Z,9.30
2024-02-08T15:59:48.310Z,9.67
2024-02-08T16:04:56.829Z,8.63
2024-02-08T16:10:21.754Z,9.13
2024-02-08T16:15:46.205Z,10.27
2024-02-08T16:20:55.610Z,10.00
2024-02-08T16:26:12.672Z,10.60
2024-02-08T16:31:33.245Z,8.23
2024-02-08T16:36:46.556Z,9.07
2024-02-08T16:41:58.057Z,9.97
2024-02-08T16:53:05.496Z,10.13
2024-02-08T17:54:33.655Z,10.20
2024-02-08T17:59:39.459Z,9.40
2024-02-08T18:04:45.144Z,10.80
2024-02-08T18:10:12.637Z,10.83
2024-02-08T18:15:26.080Z,9.90
2024-02-08T18:20:35.314Z,7.93
2024-02-08T18:25:47.021Z,7.30
2024-02-08T18:30:57.455Z,8.80
2024-02-08T18:36:06.430Z,8.40
2024-02-08T18:41:14.196Z,10.43
2024-02-08T18:46:26.264Z,8.97
2024-02-08T18:51:32.070Z,9.07
2024-02-08T18:56:39.951Z,9.10
2024-02-08T19:01:54.085Z,10.17
2024-02-08T19:07:06.798Z,9.77
2024-02-08T19:12:19.506Z,9.03
2024-02-08T19:17:33.186Z,9.47
2024-02-08T19:22:49.931Z,9.23
2024-02-08T19:28:00.655Z,9.77
2024-02-08T19:33:11.770Z,10.00
2024-02-08T19:38:19.639Z,10.90
2024-02-08T19:43:36.896Z,9.73
2024-02-08T19:48:43.709Z,9.47
2024-02-08T19:53:51.645Z,8.97
2024-02-08T19:59:04.000Z,10.63
2024-02-08T20:04:15.532Z,11.73
2024-02-08T20:09:23.269Z,11.10
2024-02-08T20:14:32.681Z,12.30
2024-02-08T20:19:40.137Z,10.93
2024-02-08T20:24:47.137Z,9.80
2024-02-08T20:29:58.941Z,10.77
2024-02-08T20:35:05.608Z,11.10
2024-02-08T20:40:12.895Z,9.10
2024-02-08T20:45:23.513Z,10.60
2024-02-08T20:50:28.672Z,11.80
2024-02-08T20:55:36.756Z,9.97
2024-02-08T21:00:48.062Z,10.80
2024-02-08T21:05:56.153Z,9.83
2024-02-08T21:11:02.825Z,11.50
2024-02-08T21:16:14.435Z,11.17
2024-02-08T21:21:22.083Z,11.60
2024-02-08T21:26:27.683Z,11.43
2024-02-08T21:31:35.672Z,10.20
2024-02-08T21:36:44.897Z,10.90
2024-02-08T21:41:50.659Z,11.73
2024-02-08T21:46:58.600Z,11.23
2024-02-08T21:52:08.985Z,11.53
2024-02-08T21:57:16.406Z,11.40
2024-02-08T22:02:24.272Z,12.60
2024-02-08T22:07:29.945Z,11.90
2024-02-08T22:12:35.316Z,12.33
2024-02-08T22:17:43.107Z,12.03
2024-02-08T22:22:49.197Z,10.77
2024-02-08T22:27:54.394Z,10.30
2024-02-08T22:33:02.893Z,10.23
2024-02-08T22:38:09.142Z,11.07
2024-02-08T22:43:19.049Z,9.70
2024-02-08T22:48:26.925Z,10.80
2024-02-08T22:53:32.240Z,9.67
2024-02-08T22:58:38.043Z,10.50
2024-02-08T23:03:46.307Z,10.03
2024-02-08T23:08:51.560Z,8.93
2024-02-08T23:13:56.753Z,9.43
2024-02-08T23:19:06.370Z,9.33
2024-02-08T23:24:11.751Z,9.83
2024-02-08T23:29:17.084Z,8.30
2024-02-08T23:34:28.389Z,10.67
2024-02-08T23:39:34.330Z,11.30
2024-02-08T23:44:40.012Z,9.47
2024-02-08T23:49:47.991Z,9.97
2024-02-08T23:54:53.477Z,9.43
2024-02-08T23:59:58.787Z,9.40
